sensor_id;sensor_type;location;lat;lon;timestamp;temperature;humidity
33077;DHT22;38790;51.964;5.924;2022-07-19T00:01:43;22.40;99.90
33077;DHT22;38790;51.964;5.924;2022-07-19T00:04:09;22.30;99.90
33077;DHT22;38790;51.964;5.924;2022-07-19T00:06:36;22.30;99.90
33077;DHT22;38790;51.964;5.924;2022-07-19T00:09:03;22.20;99.90
33077;DHT22;38790;51.964;5.924;2022-07-19T00:11:29;22.20;99.90
33077;DHT22;38790;51.964;5.924;2022-07-19T00:13:56;22.10;99.90
33077;DHT22;38790;51.964;5.924;2022-07-19T00:16:22;21.90;99.90
33077;DHT22;38790;51.964;5.924;2022-07-19T00:18:48;21.70;99.90
33077;DHT22;38790;51.964;5.924;2022-07-19T00:21:14;21.80;99.90
33077;DHT22;38790;51.964;5.924;2022-07-19T00:23:40;21.60;99.90
33077;DHT22;38790;51.964;5.924;2022-07-19T00:26:07;21.40;99.90
33077;DHT22;38790;51.964;5.924;2022-07-19T00:28:33;21.40;99.90
33077;DHT22;38790;51.964;5.924;2022-07-19T00:30:59;21.40;99.90
33077;DHT22;38790;51.964;5.924;2022-07-19T00:33:25;21.40;99.90
33077;DHT22;38790;51.964;5.924;2022-07-19T00:35:52;21.50;99.90
33077;DHT22;38790;51.964;5.924;2022-07-19T00:38:18;21.30;99.90
33077;DHT22;38790;51.964;5.924;2022-07-19T00:40:44;21.10;99.90
33077;DHT22;38790;51.964;5.924;2022-07-19T00:43:11;21.10;99.90
33077;DHT22;38790;51.964;5.924;2022-07-19T00:45:37;21.00;99.90
33077;DHT22;38790;51.964;5.924;2022-07-19T00:48:05;21.00;99.90
33077;DHT22;38790;51.964;5.924;2022-07-19T00:50:31;20.90;99.90
33077;DHT22;38790;51.964;5.924;2022-07-19T00:52:59;20.90;99.90
33077;DHT22;38790;51.964;5.924;2022-07-19T00:55:29;20.90;99.90
33077;DHT22;38790;51.964;5.924;2022-07-19T00:57:59;21.00;99.90
33077;DHT22;38790;51.964;5.924;2022-07-19T01:00:27;21.00;99.90
33077;DHT22;38790;51.964;5.924;2022-07-19T01:02:54;21.00;99.90
33077;DHT22;38790;51.964;5.924;2022-07-19T01:05:20;21.00;99.90
33077;DHT22;38790;51.964;5.924;2022-07-19T01:07:47;20.90;99.90
33077;DHT22;38790;51.964;5.924;2022-07-19T01:10:14;21.00;99.90
33077;DHT22;38790;51.964;5.924;2022-07-19T01:12:41;21.10;99.90
33077;DHT22;38790;51.964;5.924;2022-07-19T01:15:19;21.00;99.90
33077;DHT22;38790;51.964;5.924;2022-07-19T01:17:46;21.00;99.90
33077;DHT22;38790;51.964;5.924;2022-07-19T01:20:13;21.10;99.90
33077;DHT22;38790;51.964;5.924;2022-07-19T01:22:41;21.10;99.90
33077;DHT22;38790;51.964;5.924;2022-07-19T01:25:08;21.20;99.90
33077;DHT22;38790;51.964;5.924;2022-07-19T01:27:46;21.30;99.90
33077;DHT22;38790;51.964;5.924;2022-07-19T01:30:16;21.40;99.90
33077;DHT22;38790;51.964;5.924;2022-07-19T01:32:42;21.40;99.90
33077;DHT22;38790;51.964;5.924;2022-07-19T01:35:09;21.30;99.90
33077;DHT22;38790;51.964;5.924;2022-07-19T01:37:35;21.20;99.90
33077;DHT22;38790;51.964;5.924;2022-07-19T01:40:03;21.30;99.90
33077;DHT22;38790;51.964;5.924;2022-07-19T01:42:30;21.20;99.90
33077;DHT22;38790;51.964;5.924;2022-07-19T01:44:56;21.10;99.90
33077;DHT22;38790;51.964;5.924;2022-07-19T01:47:23;21.10;99.90
33077;DHT22;38790;51.964;5.924;2022-07-19T01:49:49;21.10;99.90
33077;DHT22;38790;51.964;5.924;2022-07-19T01:52:15;21.10;99.90
33077;DHT22;38790;51.964;5.924;2022-07-19T01:54:41;21.00;99.90
33077;DHT22;38790;51.964;5.924;2022-07-19T01:57:08;20.90;99.90
33077;DHT22;38790;51.964;5.924;2022-07-19T01:59:38;20.80;99.90
33077;DHT22;38790;51.964;5.924;2022-07-19T02:02:05;20.80;99.90
33077;DHT22;38790;51.964;5.924;2022-07-19T02:04:31;20.70;99.90
33077;DHT22;38790;51.964;5.924;2022-07-19T02:06:57;20.60;99.90
33077;DHT22;38790;51.964;5.924;2022-07-19T02:09:24;20.60;99.90
33077;DHT22;38790;51.964;5.924;2022-07-19T02:11:50;20.60;99.90
33077;DHT22;38790;51.964;5.924;2022-07-19T02:14:17;20.60;99.90
33077;DHT22;38790;51.964;5.924;2022-07-19T02:16:43;20.50;99.90
33077;DHT22;38790;51.964;5.924;2022-07-19T02:19:10;20.50;99.90
33077;DHT22;38790;51.964;5.924;2022-07-19T02:21:37;20.60;99.90
33077;DHT22;38790;51.964;5.924;2022-07-19T02:24:06;20.60;99.90
33077;DHT22;38790;51.964;5.924;2022-07-19T02:26:33;20.60;99.90
33077;DHT22;38790;51.964;5.924;2022-07-19T02:28:59;20.60;99.90
33077;DHT22;38790;51.964;5.924;2022-07-19T02:31:25;20.60;99.90
33077;DHT22;38790;51.964;5.924;2022-07-19T02:33:52;20.50;99.90
33077;DHT22;38790;51.964;5.924;2022-07-19T02:36:18;20.30;99.90
33077;DHT22;38790;51.964;5.924;2022-07-19T02:38:44;20.10;99.90
33077;DHT22;38790;51.964;5.924;2022-07-19T02:41:11;20.10;99.90
33077;DHT22;38790;51.964;5.924;2022-07-19T02:43:37;20.20;99.90
33077;DHT22;38790;51.964;5.924;2022-07-19T02:46:03;20.30;99.90
33077;DHT22;38790;51.964;5.924;2022-07-19T02:48:29;20.30;99.90
33077;DHT22;38790;51.964;5.924;2022-07-19T02:50:56;20.20;99.90
33077;DHT22;38790;51.964;5.924;2022-07-19T02:53:22;20.30;99.90
33077;DHT22;38790;51.964;5.924;2022-07-19T02:55:48;20.30;99.90
33077;DHT22;38790;51.964;5.924;2022-07-19T02:58:14;20.20;99.90
33077;DHT22;38790;51.964;5.924;2022-07-19T03:00:40;20.00;99.90
33077;DHT22;38790;51.964;5.924;2022-07-19T03:03:06;20.00;99.90
33077;DHT22;38790;51.964;5.924;2022-07-19T03:05:51;20.10;99.90
33077;DHT22;38790;51.964;5.924;2022-07-19T03:08:17;20.10;99.90
33077;DHT22;38790;51.964;5.924;2022-07-19T03:10:43;20.20;99.90
33077;DHT22;38790;51.964;5.924;2022-07-19T03:13:10;20.30;99.90
33077;DHT22;38790;51.964;5.924;2022-07-19T03:15:36;20.30;99.90
33077;DHT22;38790;51.964;5.924;2022-07-19T03:18:03;20.40;99.90
33077;DHT22;38790;51.964;5.924;2022-07-19T03:20:29;20.20;99.90
33077;DHT22;38790;51.964;5.924;2022-07-19T03:22:55;20.10;99.90
33077;DHT22;38790;51.964;5.924;2022-07-19T03:25:22;20.20;99.90
33077;DHT22;38790;51.964;5.924;2022-07-19T03:27:48;20.20;99.90
33077;DHT22;38790;51.964;5.924;2022-07-19T03:30:14;20.10;99.90
33077;DHT22;38790;51.964;5.924;2022-07-19T03:32:40;20.20;99.90
33077;DHT22;38790;51.964;5.924;2022-07-19T03:35:07;20.20;99.90
33077;DHT22;38790;51.964;5.924;2022-07-19T03:37:33;20.10;99.90
33077;DHT22;38790;51.964;5.924;2022-07-19T03:39:59;20.00;99.90
33077;DHT22;38790;51.964;5.924;2022-07-19T03:42:25;20.00;99.90
33077;DHT22;38790;51.964;5.924;2022-07-19T03:44:52;19.90;99.90
33077;DHT22;38790;51.964;5.924;2022-07-19T03:47:18;19.90;99.90
33077;DHT22;38790;51.964;5.924;2022-07-19T03:49:44;19.90;99.90
33077;DHT22;38790;51.964;5.924;2022-07-19T03:52:10;19.90;99.90
33077;DHT22;38790;51.964;5.924;2022-07-19T03:54:37;19.90;99.90
33077;DHT22;38790;51.964;5.924;2022-07-19T03:57:03;19.90;99.90
33077;DHT22;38790;51.964;5.924;2022-07-19T03:59:30;20.00;99.90
33077;DHT22;38790;51.964;5.924;2022-07-19T04:01:56;20.00;99.90
33077;DHT22;38790;51.964;5.924;2022-07-19T04:04:22;20.00;99.90
33077;DHT22;38790;51.964;5.924;2022-07-19T04:06:48;20.00;99.90
33077;DHT22;38790;51.964;5.924;2022-07-19T04:09:14;20.00;99.90
33077;DHT22;38790;51.964;5.924;2022-07-19T04:11:40;20.10;99.90
33077;DHT22;38790;51.964;5.924;2022-07-19T04:14:06;20.10;99.90
33077;DHT22;38790;51.964;5.924;2022-07-19T04:16:33;20.20;99.90
33077;DHT22;38790;51.964;5.924;2022-07-19T04:18:59;20.20;99.90
33077;DHT22;38790;51.964;5.924;2022-07-19T04:21:25;20.30;99.90
33077;DHT22;38790;51.964;5.924;2022-07-19T04:23:51;20.30;99.90
33077;DHT22;38790;51.964;5.924;2022-07-19T04:26:17;20.40;99.90
33077;DHT22;38790;51.964;5.924;2022-07-19T04:28:43;20.40;99.90
33077;DHT22;38790;51.964;5.924;2022-07-19T04:31:09;20.40;99.90
33077;DHT22;38790;51.964;5.924;2022-07-19T04:33:35;20.40;99.90
33077;DHT22;38790;51.964;5.924;2022-07-19T04:36:01;20.40;99.90
33077;DHT22;38790;51.964;5.924;2022-07-19T04:38:27;20.70;99.90
33077;DHT22;38790;51.964;5.924;2022-07-19T04:40:53;21.20;99.90
33077;DHT22;38790;51.964;5.924;2022-07-19T04:43:19;21.80;99.90
33077;DHT22;38790;51.964;5.924;2022-07-19T04:45:45;22.10;99.90
33077;DHT22;38790;51.964;5.924;2022-07-19T04:48:12;22.30;99.90
33077;DHT22;38790;51.964;5.924;2022-07-19T04:50:39;22.40;99.90
33077;DHT22;38790;51.964;5.924;2022-07-19T04:53:06;22.10;99.90
33077;DHT22;38790;51.964;5.924;2022-07-19T04:55:33;22.10;99.90
33077;DHT22;38790;51.964;5.924;2022-07-19T04:57:59;22.10;99.90
33077;DHT22;38790;51.964;5.924;2022-07-19T05:00:26;22.00;99.90
33077;DHT22;38790;51.964;5.924;2022-07-19T05:02:55;21.90;99.90
33077;DHT22;38790;51.964;5.924;2022-07-19T05:05:22;21.90;99.90
33077;DHT22;38790;51.964;5.924;2022-07-19T05:07:49;21.90;99.90
33077;DHT22;38790;51.964;5.924;2022-07-19T05:10:15;21.90;99.90
33077;DHT22;38790;51.964;5.924;2022-07-19T05:12:42;21.90;99.90
33077;DHT22;38790;51.964;5.924;2022-07-19T05:15:08;22.00;99.90
33077;DHT22;38790;51.964;5.924;2022-07-19T05:17:34;22.10;99.90
33077;DHT22;38790;51.964;5.924;2022-07-19T05:20:01;22.30;99.90
33077;DHT22;38790;51.964;5.924;2022-07-19T05:22:27;22.50;99.90
33077;DHT22;38790;51.964;5.924;2022-07-19T05:24:53;22.50;99.90
33077;DHT22;38790;51.964;5.924;2022-07-19T05:27:20;22.60;99.90
33077;DHT22;38790;51.964;5.924;2022-07-19T05:29:46;22.80;99.90
33077;DHT22;38790;51.964;5.924;2022-07-19T05:32:12;22.90;99.90
33077;DHT22;38790;51.964;5.924;2022-07-19T05:34:38;23.00;99.90
33077;DHT22;38790;51.964;5.924;2022-07-19T05:37:05;23.30;99.90
33077;DHT22;38790;51.964;5.924;2022-07-19T05:39:31;23.60;99.90
33077;DHT22;38790;51.964;5.924;2022-07-19T05:41:57;23.70;99.90
33077;DHT22;38790;51.964;5.924;2022-07-19T05:44:24;23.90;99.90
33077;DHT22;38790;51.964;5.924;2022-07-19T05:46:50;24.00;99.90
33077;DHT22;38790;51.964;5.924;2022-07-19T05:49:16;24.10;99.90
33077;DHT22;38790;51.964;5.924;2022-07-19T05:51:42;24.10;99.90
33077;DHT22;38790;51.964;5.924;2022-07-19T05:54:09;24.10;99.90
33077;DHT22;38790;51.964;5.924;2022-07-19T05:56:36;24.30;99.90
33077;DHT22;38790;51.964;5.924;2022-07-19T05:59:02;24.40;99.90
33077;DHT22;38790;51.964;5.924;2022-07-19T06:01:28;24.50;99.90
33077;DHT22;38790;51.964;5.924;2022-07-19T06:03:57;24.60;99.90
33077;DHT22;38790;51.964;5.924;2022-07-19T06:06:24;24.70;99.90
33077;DHT22;38790;51.964;5.924;2022-07-19T06:08:51;24.80;99.90
33077;DHT22;38790;51.964;5.924;2022-07-19T06:11:18;24.90;99.90
33077;DHT22;38790;51.964;5.924;2022-07-19T06:13:45;25.20;99.90
33077;DHT22;38790;51.964;5.924;2022-07-19T06:16:11;25.20;99.90
33077;DHT22;38790;51.964;5.924;2022-07-19T06:18:38;25.20;99.90
33077;DHT22;38790;51.964;5.924;2022-07-19T06:21:07;25.40;99.90
33077;DHT22;38790;51.964;5.924;2022-07-19T06:23:34;25.40;99.90
33077;DHT22;38790;51.964;5.924;2022-07-19T06:26:00;25.60;99.90
33077;DHT22;38790;51.964;5.924;2022-07-19T06:28:26;25.70;99.90
33077;DHT22;38790;51.964;5.924;2022-07-19T06:30:53;25.90;99.90
33077;DHT22;38790;51.964;5.924;2022-07-19T06:33:19;26.10;99.90
33077;DHT22;38790;51.964;5.924;2022-07-19T06:35:46;26.40;99.90
33077;DHT22;38790;51.964;5.924;2022-07-19T06:38:12;26.50;99.90
33077;DHT22;38790;51.964;5.924;2022-07-19T06:40:38;26.90;99.90
33077;DHT22;38790;51.964;5.924;2022-07-19T06:43:04;27.40;99.90
33077;DHT22;38790;51.964;5.924;2022-07-19T06:45:31;27.50;99.90
33077;DHT22;38790;51.964;5.924;2022-07-19T06:47:57;27.30;99.90
33077;DHT22;38790;51.964;5.924;2022-07-19T06:50:23;27.30;99.90
33077;DHT22;38790;51.964;5.924;2022-07-19T06:52:50;27.30;99.90
33077;DHT22;38790;51.964;5.924;2022-07-19T06:55:16;27.40;99.90
33077;DHT22;38790;51.964;5.924;2022-07-19T06:57:42;27.60;99.90
33077;DHT22;38790;51.964;5.924;2022-07-19T07:00:09;27.80;99.90
33077;DHT22;38790;51.964;5.924;2022-07-19T07:02:36;27.90;99.90
33077;DHT22;38790;51.964;5.924;2022-07-19T07:05:04;28.40;99.90
33077;DHT22;38790;51.964;5.924;2022-07-19T07:07:30;28.70;99.90
33077;DHT22;38790;51.964;5.924;2022-07-19T07:09:56;28.80;99.90
33077;DHT22;38790;51.964;5.924;2022-07-19T07:12:22;29.00;99.90
33077;DHT22;38790;51.964;5.924;2022-07-19T07:14:48;28.80;99.90
33077;DHT22;38790;51.964;5.924;2022-07-19T07:17:14;28.80;99.90
33077;DHT22;38790;51.964;5.924;2022-07-19T07:19:40;29.20;99.90
33077;DHT22;38790;51.964;5.924;2022-07-19T07:22:07;29.40;99.90
33077;DHT22;38790;51.964;5.924;2022-07-19T07:24:33;29.40;99.90
33077;DHT22;38790;51.964;5.924;2022-07-19T07:26:59;29.20;99.90
33077;DHT22;38790;51.964;5.924;2022-07-19T07:29:25;29.20;99.90
33077;DHT22;38790;51.964;5.924;2022-07-19T07:31:51;29.90;99.90
33077;DHT22;38790;51.964;5.924;2022-07-19T07:34:17;29.90;99.90
33077;DHT22;38790;51.964;5.924;2022-07-19T07:36:43;29.70;99.90
33077;DHT22;38790;51.964;5.924;2022-07-19T07:39:11;29.90;99.90
33077;DHT22;38790;51.964;5.924;2022-07-19T07:41:37;30.30;99.90
33077;DHT22;38790;51.964;5.924;2022-07-19T07:44:03;30.40;99.90
33077;DHT22;38790;51.964;5.924;2022-07-19T07:46:30;30.40;99.90
33077;DHT22;38790;51.964;5.924;2022-07-19T07:48:56;30.70;99.90
33077;DHT22;38790;51.964;5.924;2022-07-19T07:51:22;31.10;99.80
33077;DHT22;38790;51.964;5.924;2022-07-19T07:53:48;31.50;99.60
33077;DHT22;38790;51.964;5.924;2022-07-19T07:56:15;31.50;99.50
33077;DHT22;38790;51.964;5.924;2022-07-19T07:58:41;31.40;99.40
33077;DHT22;38790;51.964;5.924;2022-07-19T08:01:07;31.60;99.00
33077;DHT22;38790;51.964;5.924;2022-07-19T08:03:33;31.60;98.70
33077;DHT22;38790;51.964;5.924;2022-07-19T08:06:00;31.40;98.80
33077;DHT22;38790;51.964;5.924;2022-07-19T08:08:26;31.80;98.80
33077;DHT22;38790;51.964;5.924;2022-07-19T08:10:53;31.80;97.90
33077;DHT22;38790;51.964;5.924;2022-07-19T08:13:20;31.80;98.20
33077;DHT22;38790;51.964;5.924;2022-07-19T08:15:46;32.10;98.30
33077;DHT22;38790;51.964;5.924;2022-07-19T08:18:13;32.60;98.10
33077;DHT22;38790;51.964;5.924;2022-07-19T08:20:39;32.70;97.70
33077;DHT22;38790;51.964;5.924;2022-07-19T08:23:05;32.60;97.80
33077;DHT22;38790;51.964;5.924;2022-07-19T08:25:32;32.40;98.10
33077;DHT22;38790;51.964;5.924;2022-07-19T08:28:02;32.70;98.00
33077;DHT22;38790;51.964;5.924;2022-07-19T08:30:28;32.90;97.40
33077;DHT22;38790;51.964;5.924;2022-07-19T08:32:54;32.80;97.40
33077;DHT22;38790;51.964;5.924;2022-07-19T08:35:20;32.70;96.90
33077;DHT22;38790;51.964;5.924;2022-07-19T08:37:46;33.10;96.90
33077;DHT22;38790;51.964;5.924;2022-07-19T08:40:12;33.10;96.20
33077;DHT22;38790;51.964;5.924;2022-07-19T08:42:39;32.90;96.50
33077;DHT22;38790;51.964;5.924;2022-07-19T08:45:07;33.30;96.90
33077;DHT22;38790;51.964;5.924;2022-07-19T08:47:35;33.50;96.60
33077;DHT22;38790;51.964;5.924;2022-07-19T08:50:07;33.60;96.50
33077;DHT22;38790;51.964;5.924;2022-07-19T08:52:34;33.70;96.60
33077;DHT22;38790;51.964;5.924;2022-07-19T08:55:01;33.60;96.60
33077;DHT22;38790;51.964;5.924;2022-07-19T08:57:27;34.00;96.30
33077;DHT22;38790;51.964;5.924;2022-07-19T09:00:12;34.20;95.80
33077;DHT22;38790;51.964;5.924;2022-07-19T09:02:38;34.00;95.40
33077;DHT22;38790;51.964;5.924;2022-07-19T09:05:07;33.90;96.30
33077;DHT22;38790;51.964;5.924;2022-07-19T09:07:38;33.70;96.30
33077;DHT22;38790;51.964;5.924;2022-07-19T09:10:23;33.70;96.00
33077;DHT22;38790;51.964;5.924;2022-07-19T09:18:29;33.80;95.00
33077;DHT22;38790;51.964;5.924;2022-07-19T09:21:02;33.70;95.50
33077;DHT22;38790;51.964;5.924;2022-07-19T09:23:29;33.70;95.10
33077;DHT22;38790;51.964;5.924;2022-07-19T09:26:03;33.50;94.90
33077;DHT22;38790;51.964;5.924;2022-07-19T09:28:32;33.60;95.10
33077;DHT22;38790;51.964;5.924;2022-07-19T09:30:59;33.90;95.00
33077;DHT22;38790;51.964;5.924;2022-07-19T09:33:28;34.10;95.20
33077;DHT22;38790;51.964;5.924;2022-07-19T09:36:01;34.20;94.90
33077;DHT22;38790;51.964;5.924;2022-07-19T09:38:35;34.30;95.40
33077;DHT22;38790;51.964;5.924;2022-07-19T09:41:18;34.50;95.00
33077;DHT22;38790;51.964;5.924;2022-07-19T09:43:56;34.80;94.30
33077;DHT22;38790;51.964;5.924;2022-07-19T09:46:32;34.60;93.50
33077;DHT22;38790;51.964;5.924;2022-07-19T09:49:18;34.90;93.90
33077;DHT22;38790;51.964;5.924;2022-07-19T09:51:49;34.70;93.10
33077;DHT22;38790;51.964;5.924;2022-07-19T09:54:18;34.50;93.70
33077;DHT22;38790;51.964;5.924;2022-07-19T09:56:46;34.80;94.10
33077;DHT22;38790;51.964;5.924;2022-07-19T09:59:13;35.10;94.00
33077;DHT22;38790;51.964;5.924;2022-07-19T10:01:39;35.00;93.20
33077;DHT22;38790;51.964;5.924;2022-07-19T10:04:11;35.10;94.20
33077;DHT22;38790;51.964;5.924;2022-07-19T10:06:39;35.20;94.50
33077;DHT22;38790;51.964;5.924;2022-07-19T10:09:10;35.10;93.10
33077;DHT22;38790;51.964;5.924;2022-07-19T10:11:37;34.80;93.10
33077;DHT22;38790;51.964;5.924;2022-07-19T10:14:04;34.70;94.00
33077;DHT22;38790;51.964;5.924;2022-07-19T10:19:12;35.30;94.10
33077;DHT22;38790;51.964;5.924;2022-07-19T10:21:40;35.50;93.50
33077;DHT22;38790;51.964;5.924;2022-07-19T10:24:06;35.20;93.20
33077;DHT22;38790;51.964;5.924;2022-07-19T10:26:37;35.30;93.60
33077;DHT22;38790;51.964;5.924;2022-07-19T10:29:12;35.60;94.60
33077;DHT22;38790;51.964;5.924;2022-07-19T10:31:39;36.10;93.80
33077;DHT22;38790;51.964;5.924;2022-07-19T10:34:08;36.10;93.30
33077;DHT22;38790;51.964;5.924;2022-07-19T10:36:44;35.80;91.80
33077;DHT22;38790;51.964;5.924;2022-07-19T10:44:30;35.30;91.60
33077;DHT22;38790;51.964;5.924;2022-07-19T10:46:57;35.20;91.40
33077;DHT22;38790;51.964;5.924;2022-07-19T10:49:42;35.10;91.60
33077;DHT22;38790;51.964;5.924;2022-07-19T10:57:52;35.40;91.40
33077;DHT22;38790;51.964;5.924;2022-07-19T11:00:26;35.70;91.40
33077;DHT22;38790;51.964;5.924;2022-07-19T11:05:59;36.00;91.10
33077;DHT22;38790;51.964;5.924;2022-07-19T11:08:39;36.00;90.60
33077;DHT22;38790;51.964;5.924;2022-07-19T11:11:11;35.90;90.20
33077;DHT22;38790;51.964;5.924;2022-07-19T11:13:39;35.80;90.20
33077;DHT22;38790;51.964;5.924;2022-07-19T11:16:06;35.90;91.00
33077;DHT22;38790;51.964;5.924;2022-07-19T11:18:33;36.00;90.10
33077;DHT22;38790;51.964;5.924;2022-07-19T11:21:02;36.30;91.40
33077;DHT22;38790;51.964;5.924;2022-07-19T11:23:34;36.60;90.20
33077;DHT22;38790;51.964;5.924;2022-07-19T11:28:37;36.30;89.10
33077;DHT22;38790;51.964;5.924;2022-07-19T11:31:15;36.30;88.40
33077;DHT22;38790;51.964;5.924;2022-07-19T11:33:42;36.30;89.10
33077;DHT22;38790;51.964;5.924;2022-07-19T11:36:09;36.00;87.30
33077;DHT22;38790;51.964;5.924;2022-07-19T11:38:38;35.90;88.50
33077;DHT22;38790;51.964;5.924;2022-07-19T11:41:11;36.10;88.80
33077;DHT22;38790;51.964;5.924;2022-07-19T11:43:38;36.30;91.30
33077;DHT22;38790;51.964;5.924;2022-07-19T11:46:04;36.50;89.00
33077;DHT22;38790;51.964;5.924;2022-07-19T11:48:31;36.50;91.30
33077;DHT22;38790;51.964;5.924;2022-07-19T11:50:59;36.50;90.20
33077;DHT22;38790;51.964;5.924;2022-07-19T11:53:26;36.50;89.10
33077;DHT22;38790;51.964;5.924;2022-07-19T11:55:52;36.60;88.90
33077;DHT22;38790;51.964;5.924;2022-07-19T11:58:18;36.60;89.10
33077;DHT22;38790;51.964;5.924;2022-07-19T12:00:44;36.50;89.20
33077;DHT22;38790;51.964;5.924;2022-07-19T12:03:15;36.40;89.00
33077;DHT22;38790;51.964;5.924;2022-07-19T12:05:55;36.50;88.60
33077;DHT22;38790;51.964;5.924;2022-07-19T12:08:35;36.40;88.40
33077;DHT22;38790;51.964;5.924;2022-07-19T12:11:01;36.40;88.90
33077;DHT22;38790;51.964;5.924;2022-07-19T12:13:40;36.70;91.40
33077;DHT22;38790;51.964;5.924;2022-07-19T12:16:10;36.60;87.60
33077;DHT22;38790;51.964;5.924;2022-07-19T12:18:46;36.60;89.20
33077;DHT22;38790;51.964;5.924;2022-07-19T12:26:36;37.00;90.40
33077;DHT22;38790;51.964;5.924;2022-07-19T12:34:47;36.70;88.20
33077;DHT22;38790;51.964;5.924;2022-07-19T12:37:31;36.70;88.00
33077;DHT22;38790;51.964;5.924;2022-07-19T12:40:22;36.60;86.10
33077;DHT22;38790;51.964;5.924;2022-07-19T12:42:58;36.60;87.80
33077;DHT22;38790;51.964;5.924;2022-07-19T12:45:37;36.50;85.00
33077;DHT22;38790;51.964;5.924;2022-07-19T12:48:06;36.40;85.80
33077;DHT22;38790;51.964;5.924;2022-07-19T12:50:38;36.60;90.80
33077;DHT22;38790;51.964;5.924;2022-07-19T12:53:06;37.10;87.10
33077;DHT22;38790;51.964;5.924;2022-07-19T12:55:34;37.10;86.00
33077;DHT22;38790;51.964;5.924;2022-07-19T12:58:02;36.90;85.20
33077;DHT22;38790;51.964;5.924;2022-07-19T13:00:29;36.90;88.90
33077;DHT22;38790;51.964;5.924;2022-07-19T13:02:56;36.80;90.10
33077;DHT22;38790;51.964;5.924;2022-07-19T13:05:24;37.00;89.70
33077;DHT22;38790;51.964;5.924;2022-07-19T13:07:50;36.90;90.70
33077;DHT22;38790;51.964;5.924;2022-07-19T13:10:17;37.00;89.30
33077;DHT22;38790;51.964;5.924;2022-07-19T13:12:44;37.00;88.70
33077;DHT22;38790;51.964;5.924;2022-07-19T13:15:11;37.00;90.30
33077;DHT22;38790;51.964;5.924;2022-07-19T13:17:37;36.90;88.90
33077;DHT22;38790;51.964;5.924;2022-07-19T13:20:05;36.90;85.60
33077;DHT22;38790;51.964;5.924;2022-07-19T13:22:38;36.80;85.40
33077;DHT22;38790;51.964;5.924;2022-07-19T13:25:06;36.70;83.70
33077;DHT22;38790;51.964;5.924;2022-07-19T13:27:32;36.60;85.60
33077;DHT22;38790;51.964;5.924;2022-07-19T13:29:59;36.70;88.40
33077;DHT22;38790;51.964;5.924;2022-07-19T13:32:25;36.80;85.70
33077;DHT22;38790;51.964;5.924;2022-07-19T13:34:51;36.70;81.40
33077;DHT22;38790;51.964;5.924;2022-07-19T13:37:18;36.60;80.60
33077;DHT22;38790;51.964;5.924;2022-07-19T13:39:44;36.50;82.10
33077;DHT22;38790;51.964;5.924;2022-07-19T13:42:10;36.70;84.00
33077;DHT22;38790;51.964;5.924;2022-07-19T13:44:36;36.70;81.50
33077;DHT22;38790;51.964;5.924;2022-07-19T13:47:02;36.70;82.60
33077;DHT22;38790;51.964;5.924;2022-07-19T13:49:28;36.80;87.20
33077;DHT22;38790;51.964;5.924;2022-07-19T13:51:54;37.00;82.30
33077;DHT22;38790;51.964;5.924;2022-07-19T13:54:21;36.90;83.90
33077;DHT22;38790;51.964;5.924;2022-07-19T13:56:47;36.90;84.00
33077;DHT22;38790;51.964;5.924;2022-07-19T13:59:13;37.00;83.30
33077;DHT22;38790;51.964;5.924;2022-07-19T14:01:39;36.90;77.90
33077;DHT22;38790;51.964;5.924;2022-07-19T14:04:05;36.80;82.10
33077;DHT22;38790;51.964;5.924;2022-07-19T14:06:31;36.70;78.00
33077;DHT22;38790;51.964;5.924;2022-07-19T14:08:58;36.80;87.20
33077;DHT22;38790;51.964;5.924;2022-07-19T14:11:24;36.90;82.20
33077;DHT22;38790;51.964;5.924;2022-07-19T14:13:50;36.80;81.30
33077;DHT22;38790;51.964;5.924;2022-07-19T14:16:17;36.80;84.10
33077;DHT22;38790;51.964;5.924;2022-07-19T14:18:43;37.00;85.30
33077;DHT22;38790;51.964;5.924;2022-07-19T14:21:09;37.00;82.70
33077;DHT22;38790;51.964;5.924;2022-07-19T14:23:36;37.00;81.30
33077;DHT22;38790;51.964;5.924;2022-07-19T14:26:02;37.10;87.10
33077;DHT22;38790;51.964;5.924;2022-07-19T14:28:28;37.30;86.10
33077;DHT22;38790;51.964;5.924;2022-07-19T14:30:54;37.60;83.90
33077;DHT22;38790;51.964;5.924;2022-07-19T14:33:20;37.70;81.60
33077;DHT22;38790;51.964;5.924;2022-07-19T14:35:46;37.50;84.10
33077;DHT22;38790;51.964;5.924;2022-07-19T14:38:12;37.50;85.70
33077;DHT22;38790;51.964;5.924;2022-07-19T14:40:38;37.60;85.50
33077;DHT22;38790;51.964;5.924;2022-07-19T14:43:05;37.60;83.60
33077;DHT22;38790;51.964;5.924;2022-07-19T14:45:31;37.50;80.80
33077;DHT22;38790;51.964;5.924;2022-07-19T14:47:57;37.20;81.60
33077;DHT22;38790;51.964;5.924;2022-07-19T14:50:23;37.10;81.40
33077;DHT22;38790;51.964;5.924;2022-07-19T14:52:49;37.10;81.20
33077;DHT22;38790;51.964;5.924;2022-07-19T14:55:15;37.10;82.60
33077;DHT22;38790;51.964;5.924;2022-07-19T14:57:41;37.00;80.20
33077;DHT22;38790;51.964;5.924;2022-07-19T15:00:11;36.90;78.40
33077;DHT22;38790;51.964;5.924;2022-07-19T15:02:41;36.90;77.00
33077;DHT22;38790;51.964;5.924;2022-07-19T15:05:08;36.90;79.40
33077;DHT22;38790;51.964;5.924;2022-07-19T15:07:34;37.00;80.50
33077;DHT22;38790;51.964;5.924;2022-07-19T15:10:01;37.10;82.00
33077;DHT22;38790;51.964;5.924;2022-07-19T15:12:27;37.00;77.20
33077;DHT22;38790;51.964;5.924;2022-07-19T15:14:53;37.00;81.20
33077;DHT22;38790;51.964;5.924;2022-07-19T15:17:19;37.00;80.90
33077;DHT22;38790;51.964;5.924;2022-07-19T15:19:45;37.00;78.90
33077;DHT22;38790;51.964;5.924;2022-07-19T15:22:12;37.00;80.40
33077;DHT22;38790;51.964;5.924;2022-07-19T15:24:38;36.90;75.40
33077;DHT22;38790;51.964;5.924;2022-07-19T15:27:04;36.90;78.80
33077;DHT22;38790;51.964;5.924;2022-07-19T15:29:30;36.80;78.10
33077;DHT22;38790;51.964;5.924;2022-07-19T15:31:56;36.80;75.10
33077;DHT22;38790;51.964;5.924;2022-07-19T15:34:22;36.70;77.20
33077;DHT22;38790;51.964;5.924;2022-07-19T15:36:48;36.70;74.40
33077;DHT22;38790;51.964;5.924;2022-07-19T15:39:15;36.70;76.50
33077;DHT22;38790;51.964;5.924;2022-07-19T15:41:41;36.70;74.50
33077;DHT22;38790;51.964;5.924;2022-07-19T15:44:07;36.70;77.20
33077;DHT22;38790;51.964;5.924;2022-07-19T15:46:33;36.70;75.10
33077;DHT22;38790;51.964;5.924;2022-07-19T15:49:01;36.60;73.70
33077;DHT22;38790;51.964;5.924;2022-07-19T15:51:28;36.70;76.20
33077;DHT22;38790;51.964;5.924;2022-07-19T15:53:55;36.70;78.60
33077;DHT22;38790;51.964;5.924;2022-07-19T15:56:21;36.70;78.50
33077;DHT22;38790;51.964;5.924;2022-07-19T15:58:47;36.70;79.80
33077;DHT22;38790;51.964;5.924;2022-07-19T16:01:13;36.80;79.40
33077;DHT22;38790;51.964;5.924;2022-07-19T16:03:41;36.70;74.60
33077;DHT22;38790;51.964;5.924;2022-07-19T16:06:08;36.70;77.30
33077;DHT22;38790;51.964;5.924;2022-07-19T16:08:34;36.70;73.90